Minor Hill, Tennessee
Current Conditions -  °F | °C
As of 10:20 PM on Sunday 25 Jan 2015 (Local Time) from KDCU Reporting Station
Overcast Overcast  
Wind Chill: 39°   Ceiling: 1800
Heat Index: 44°   Visibility: 10mi
Dew Point: 40°   Wind: 9mph
Humidity: 85%   Direction: 280°W
Pressure: 29.79"   Gusts: NA
Location:  35.06°N, 87.16°W
Report Text: KDCU 260420Z AUTO 28008KT 10SM BKN018 BKN031 OVC090 07/04 A2979 RMK AO2 T00670044 $
Loading
Personal Weather Stations






























Interactive Weather Map New forecast layout! Learn more

10-Day Weather Forecast

Advertisements
Track Severe Weather on mobile